sensor_id;sensor_type;location;lat;lon;timestamp;pressure;altitude;pressure_sealevel;temperature;humidity
13553;BME280;6847;48.830;9.116;2023-05-11T00:00:14;97627.59;;;15.28;53.72
13553;BME280;6847;48.830;9.116;2023-05-11T00:02:42;97737.88;;;15.98;54.01
13553;BME280;6847;48.830;9.116;2023-05-11T00:05:10;97743.34;;;15.98;53.79
13553;BME280;6847;48.830;9.116;2023-05-11T00:07:37;97736.28;;;15.97;53.99
13553;BME280;6847;48.830;9.116;2023-05-11T00:10:04;97653.53;;;15.48;53.84
13553;BME280;6847;48.830;9.116;2023-05-11T00:12:31;97727.63;;;15.95;54.05
13553;BME280;6847;48.830;9.116;2023-05-11T00:14:58;97733.06;;;15.95;54.18
13553;BME280;6847;48.830;9.116;2023-05-11T00:17:25;97731.47;;;15.94;54.19
13553;BME280;6847;48.830;9.116;2023-05-11T00:19:53;97731.78;;;15.92;54.37
13553;BME280;6847;48.830;9.116;2023-05-11T00:22:20;97727.94;;;15.93;53.99
13553;BME280;6847;48.830;9.116;2023-05-11T00:24:46;97727.63;;;15.95;54.06
13553;BME280;6847;48.830;9.116;2023-05-11T00:27:13;97724.22;;;15.98;53.90
13553;BME280;6847;48.830;9.116;2023-05-11T00:29:40;97727.47;;;16.00;54.21
13553;BME280;6847;48.830;9.116;2023-05-11T00:32:07;97734.53;;;16.01;54.25
13553;BME280;6847;48.830;9.116;2023-05-11T00:34:34;97535.94;;;14.79;54.35
13553;BME280;6847;48.830;9.116;2023-05-11T00:37:03;97724.72;;;16.00;54.23
13553;BME280;6847;48.830;9.116;2023-05-11T00:39:30;97719.56;;;15.98;54.52
13553;BME280;6847;48.830;9.116;2023-05-11T00:41:57;97557.19;;;14.91;54.15
13553;BME280;6847;48.830;9.116;2023-05-11T00:44:24;97491.41;;;14.53;54.40
13553;BME280;6847;48.830;9.116;2023-05-11T00:46:51;97725.34;;;15.97;54.35
13553;BME280;6847;48.830;9.116;2023-05-11T00:49:18;97724.56;;;15.96;54.23
13553;BME280;6847;48.830;9.116;2023-05-11T00:51:47;97703.44;;;15.79;54.42
13553;BME280;6847;48.830;9.116;2023-05-11T00:54:15;97724.38;;;15.93;54.39
13553;BME280;6847;48.830;9.116;2023-05-11T00:56:42;97726.00;;;15.94;54.46
13553;BME280;6847;48.830;9.116;2023-05-11T00:59:08;97697.50;;;15.77;54.30
13553;BME280;6847;48.830;9.116;2023-05-11T01:01:37;97732.25;;;15.94;54.64
13553;BME280;6847;48.830;9.116;2023-05-11T01:04:06;97716.69;;;15.95;54.51
13553;BME280;6847;48.830;9.116;2023-05-11T01:06:38;97721.03;;;15.96;54.57
13553;BME280;6847;48.830;9.116;2023-05-11T01:09:15;97717.16;;;15.97;54.73
13553;BME280;6847;48.830;9.116;2023-05-11T01:11:50;97705.59;;;15.91;54.70
13553;BME280;6847;48.830;9.116;2023-05-11T01:14:20;97719.25;;;16.00;54.45
13553;BME280;6847;48.830;9.116;2023-05-11T01:16:54;97724.72;;;16.00;54.68
13553;BME280;6847;48.830;9.116;2023-05-11T01:19:29;97729.06;;;16.01;54.60
13553;BME280;6847;48.830;9.116;2023-05-11T01:22:08;97702.22;;;15.85;54.84
13553;BME280;6847;48.830;9.116;2023-05-11T01:24:46;97727.94;;;16.02;54.72
13553;BME280;6847;48.830;9.116;2023-05-11T01:27:43;97724.72;;;16.00;54.60
13553;BME280;6847;48.830;9.116;2023-05-11T01:30:31;97721.50;;;15.98;54.63
13553;BME280;6847;48.830;9.116;2023-05-11T01:33:05;97712.84;;;15.96;54.88
13553;BME280;6847;48.830;9.116;2023-05-11T01:35:34;97712.84;;;15.96;54.87
13553;BME280;6847;48.830;9.116;2023-05-11T01:38:10;97714.78;;;15.95;54.85
13553;BME280;6847;48.830;9.116;2023-05-11T01:40:40;97711.22;;;15.95;55.06
13553;BME280;6847;48.830;9.116;2023-05-11T01:43:11;97702.22;;;15.85;55.03
13553;BME280;6847;48.830;9.116;2023-05-11T01:45:44;97710.41;;;15.94;54.79
13553;BME280;6847;48.830;9.116;2023-05-11T01:48:15;97710.25;;;15.90;55.01
13553;BME280;6847;48.830;9.116;2023-05-11T01:50:45;97714.72;;;15.86;55.13
13553;BME280;6847;48.830;9.116;2023-05-11T01:53:14;97720.81;;;15.83;55.11
13553;BME280;6847;48.830;9.116;2023-05-11T01:55:42;97718.59;;;15.85;54.94
13553;BME280;6847;48.830;9.116;2023-05-11T01:58:13;97715.19;;;15.88;55.15
13553;BME280;6847;48.830;9.116;2023-05-11T02:00:42;97714.09;;;15.89;54.97
13553;BME280;6847;48.830;9.116;2023-05-11T02:03:10;97525.81;;;14.71;55.23
13553;BME280;6847;48.830;9.116;2023-05-11T02:05:38;97711.84;;;15.91;55.14
13553;BME280;6847;48.830;9.116;2023-05-11T02:08:06;97712.47;;;15.88;54.97
13553;BME280;6847;48.830;9.116;2023-05-11T02:10:35;97686.25;;;15.70;55.15
13553;BME280;6847;48.830;9.116;2023-05-11T02:13:05;97711.97;;;15.86;55.28
13553;BME280;6847;48.830;9.116;2023-05-11T02:15:36;97713.94;;;15.86;55.35
13553;BME280;6847;48.830;9.116;2023-05-11T02:18:11;97722.44;;;15.84;55.39
13553;BME280;6847;48.830;9.116;2023-05-11T02:20:39;97717.78;;;15.85;55.34
13553;BME280;6847;48.830;9.116;2023-05-11T02:23:08;97722.13;;;15.86;55.47
13553;BME280;6847;48.830;9.116;2023-05-11T02:25:36;97723.25;;;15.85;55.66
13553;BME280;6847;48.830;9.116;2023-05-11T02:28:04;97706.03;;;15.76;55.59
13553;BME280;6847;48.830;9.116;2023-05-11T02:30:34;97721.63;;;15.84;55.61
13553;BME280;6847;48.830;9.116;2023-05-11T02:33:07;97726.28;;;15.83;55.43
13553;BME280;6847;48.830;9.116;2023-05-11T02:35:37;97706.06;;;15.84;55.36
13553;BME280;6847;48.830;9.116;2023-05-11T02:38:08;97721.63;;;15.84;55.48
13553;BME280;6847;48.830;9.116;2023-05-11T02:40:40;97726.28;;;15.83;55.68
13553;BME280;6847;48.830;9.116;2023-05-11T02:43:10;97681.06;;;15.60;55.67
13553;BME280;6847;48.830;9.116;2023-05-11T02:45:38;97692.81;;;15.69;55.32
13553;BME280;6847;48.830;9.116;2023-05-11T02:48:13;97676.88;;;15.54;55.52
13553;BME280;6847;48.830;9.116;2023-05-11T02:50:46;97711.63;;;15.79;55.58
13553;BME280;6847;48.830;9.116;2023-05-11T02:53:15;97350.44;;;13.43;55.41
13553;BME280;6847;48.830;9.116;2023-05-11T02:55:42;97719.81;;;15.79;55.64
13553;BME280;6847;48.830;9.116;2023-05-11T02:58:09;97677.38;;;15.56;55.58
13553;BME280;6847;48.830;9.116;2023-05-11T03:00:37;97720.94;;;15.78;55.46
13553;BME280;6847;48.830;9.116;2023-05-11T03:03:04;97716.59;;;15.77;55.65
13553;BME280;6847;48.830;9.116;2023-05-11T03:05:33;97683.41;;;15.53;55.61
13553;BME280;6847;48.830;9.116;2023-05-11T03:07:59;97711.00;;;15.74;55.89
13553;BME280;6847;48.830;9.116;2023-05-11T03:10:27;97715.63;;;15.73;55.58
13553;BME280;6847;48.830;9.116;2023-05-11T03:12:54;97709.38;;;15.73;55.81
13553;BME280;6847;48.830;9.116;2023-05-11T03:15:22;97713.72;;;15.74;55.79
13553;BME280;6847;48.830;9.116;2023-05-11T03:17:50;97705.53;;;15.74;55.85
13553;BME280;6847;48.830;9.116;2023-05-11T03:20:19;97699.06;;;15.70;55.93
13553;BME280;6847;48.830;9.116;2023-05-11T03:22:50;97696.19;;;15.66;55.82
13553;BME280;6847;48.830;9.116;2023-05-11T03:25:19;97715.78;;;15.77;55.78
13553;BME280;6847;48.830;9.116;2023-05-11T03:27:46;97713.41;;;15.75;55.84
13553;BME280;6847;48.830;9.116;2023-05-11T03:30:14;97705.53;;;15.74;55.87
13553;BME280;6847;48.830;9.116;2023-05-11T03:32:44;97699.25;;;15.73;55.92
13553;BME280;6847;48.830;9.116;2023-05-11T03:35:13;97706.34;;;15.74;55.76
13553;BME280;6847;48.830;9.116;2023-05-11T03:37:42;97704.72;;;15.73;55.80
13553;BME280;6847;48.830;9.116;2023-05-11T03:40:15;97705.34;;;15.70;56.19
13553;BME280;6847;48.830;9.116;2023-05-11T03:42:47;97701.31;;;15.68;56.04
13553;BME280;6847;48.830;9.116;2023-05-11T03:45:20;97709.03;;;15.66;55.92
13553;BME280;6847;48.830;9.116;2023-05-11T03:47:51;97687.78;;;15.54;56.12
13553;BME280;6847;48.830;9.116;2023-05-11T03:50:20;97702.38;;;15.58;56.05
13553;BME280;6847;48.830;9.116;2023-05-11T03:52:47;97706.25;;;15.57;56.00
13553;BME280;6847;48.830;9.116;2023-05-11T03:55:17;97700.81;;;15.57;56.18
13553;BME280;6847;48.830;9.116;2023-05-11T03:57:45;97691.00;;;15.56;56.05
13553;BME280;6847;48.830;9.116;2023-05-11T04:00:12;97695.34;;;15.57;56.12
13553;BME280;6847;48.830;9.116;2023-05-11T04:02:40;97700.81;;;15.57;56.20
13553;BME280;6847;48.830;9.116;2023-05-11T04:05:07;97695.81;;;15.59;56.10
13553;BME280;6847;48.830;9.116;2023-05-11T04:07:35;97696.31;;;15.61;56.42
13553;BME280;6847;48.830;9.116;2023-05-11T04:10:03;97689.25;;;15.60;56.18
13553;BME280;6847;48.830;9.116;2023-05-11T04:12:47;97701.28;;;15.59;56.35
13553;BME280;6847;48.830;9.116;2023-05-11T04:15:14;97687.63;;;15.59;56.34
13553;BME280;6847;48.830;9.116;2023-05-11T04:17:41;97694.69;;;15.60;56.37
13553;BME280;6847;48.830;9.116;2023-05-11T04:20:08;97692.47;;;15.62;56.21
13553;BME280;6847;48.830;9.116;2023-05-11T04:22:35;97687.00;;;15.62;56.42
13553;BME280;6847;48.830;9.116;2023-05-11T04:25:04;97685.91;;;15.63;56.32
13553;BME280;6847;48.830;9.116;2023-05-11T04:27:31;97687.81;;;15.63;56.51
13553;BME280;6847;48.830;9.116;2023-05-11T04:30:04;97691.66;;;15.62;56.58
13553;BME280;6847;48.830;9.116;2023-05-11T04:32:32;97688.94;;;15.62;56.51
13553;BME280;6847;48.830;9.116;2023-05-11T04:34:59;97629.81;;;15.17;56.23
13553;BME280;6847;48.830;9.116;2023-05-11T04:37:26;97690.84;;;15.61;56.50
13553;BME280;6847;48.830;9.116;2023-05-11T04:39:53;97689.25;;;15.60;56.45
13553;BME280;6847;48.830;9.116;2023-05-11T04:42:21;97696.31;;;15.61;56.79
13553;BME280;6847;48.830;9.116;2023-05-11T04:44:51;97641.41;;;15.32;56.25
13553;BME280;6847;48.830;9.116;2023-05-11T04:47:20;97695.84;;;15.68;56.45
13553;BME280;6847;48.830;9.116;2023-05-11T04:49:46;97697.66;;;15.72;56.55
13553;BME280;6847;48.830;9.116;2023-05-11T04:52:17;97697.84;;;15.76;56.46
13553;BME280;6847;48.830;9.116;2023-05-11T04:54:44;97685.94;;;15.72;56.33
13553;BME280;6847;48.830;9.116;2023-05-11T04:57:12;97701.22;;;15.81;56.41
13553;BME280;6847;48.830;9.116;2023-05-11T04:59:39;97685.13;;;15.71;56.48
13553;BME280;6847;48.830;9.116;2023-05-11T05:02:06;97696.75;;;15.85;56.31
13553;BME280;6847;48.830;9.116;2023-05-11T05:04:34;97696.09;;;15.88;56.36
13553;BME280;6847;48.830;9.116;2023-05-11T05:07:00;97690.47;;;15.85;56.07
13553;BME280;6847;48.830;9.116;2023-05-11T05:09:32;97698.69;;;15.94;56.20
13553;BME280;6847;48.830;9.116;2023-05-11T05:12:16;97500.97;;;14.72;56.35
13553;BME280;6847;48.830;9.116;2023-05-11T05:14:44;97704.00;;;15.99;56.06
13553;BME280;6847;48.830;9.116;2023-05-11T05:17:14;97702.56;;;16.01;56.44
13553;BME280;6847;48.830;9.116;2023-05-11T05:19:43;97708.22;;;16.05;56.06
13553;BME280;6847;48.830;9.116;2023-05-11T05:22:12;97540.13;;;15.07;56.36
13553;BME280;6847;48.830;9.116;2023-05-11T05:24:40;97667.66;;;15.81;56.10
13553;BME280;6847;48.830;9.116;2023-05-11T05:27:07;97689.38;;;15.95;56.39
13553;BME280;6847;48.830;9.116;2023-05-11T05:29:34;97452.94;;;14.46;56.45
13553;BME280;6847;48.830;9.116;2023-05-11T05:32:00;97624.06;;;15.59;56.25
13553;BME280;6847;48.830;9.116;2023-05-11T05:34:27;97703.41;;;16.10;56.29
13553;BME280;6847;48.830;9.116;2023-05-11T05:36:55;97705.81;;;16.12;56.36
13553;BME280;6847;48.830;9.116;2023-05-11T05:39:21;97670.06;;;15.82;56.22
13553;BME280;6847;48.830;9.116;2023-05-11T05:41:48;97710.31;;;16.16;56.35
13553;BME280;6847;48.830;9.116;2023-05-11T05:44:19;97709.38;;;16.21;56.33
13553;BME280;6847;48.830;9.116;2023-05-11T05:46:45;97692.28;;;16.07;56.42
13553;BME280;6847;48.830;9.116;2023-05-11T05:49:11;97717.56;;;16.29;56.37
13553;BME280;6847;48.830;9.116;2023-05-11T05:51:38;97715.66;;;16.39;56.23
13553;BME280;6847;48.830;9.116;2023-05-11T05:54:09;97692.50;;;16.27;56.29
13553;BME280;6847;48.830;9.116;2023-05-11T05:56:38;97727.09;;;16.49;55.92
13553;BME280;6847;48.830;9.116;2023-05-11T05:59:05;97716.34;;;16.53;56.04
13553;BME280;6847;48.830;9.116;2023-05-11T06:01:33;97719.72;;;16.58;55.90
13553;BME280;6847;48.830;9.116;2023-05-11T06:04:00;97716.06;;;16.63;55.90
13553;BME280;6847;48.830;9.116;2023-05-11T06:06:26;97726.69;;;16.64;56.14
13553;BME280;6847;48.830;9.116;2023-05-11T06:08:53;97721.03;;;16.70;56.14
13553;BME280;6847;48.830;9.116;2023-05-11T06:11:21;97735.19;;;16.72;55.86
13553;BME280;6847;48.830;9.116;2023-05-11T06:13:47;97723.59;;;16.75;56.13
13553;BME280;6847;48.830;9.116;2023-05-11T06:16:16;97713.31;;;16.72;55.88
13553;BME280;6847;48.830;9.116;2023-05-11T06:18:49;97730.22;;;16.82;55.83
13553;BME280;6847;48.830;9.116;2023-05-11T06:21:18;97611.84;;;16.13;55.90
13553;BME280;6847;48.830;9.116;2023-05-11T06:24:16;97726.69;;;16.82;55.89
13553;BME280;6847;48.830;9.116;2023-05-11T06:26:44;97730.72;;;16.84;55.96
13553;BME280;6847;48.830;9.116;2023-05-11T06:29:12;97730.34;;;16.86;55.98
13553;BME280;6847;48.830;9.116;2023-05-11T06:31:39;97724.25;;;16.89;56.15
13553;BME280;6847;48.830;9.116;2023-05-11T06:34:06;97726.34;;;16.92;55.90
13553;BME280;6847;48.830;9.116;2023-05-11T06:36:35;97737.13;;;16.97;55.97
13553;BME280;6847;48.830;9.116;2023-05-11T06:39:02;97703.50;;;16.79;56.04
13553;BME280;6847;48.830;9.116;2023-05-11T06:41:35;97726.34;;;17.00;55.85
13553;BME280;6847;48.830;9.116;2023-05-11T06:44:08;97729.72;;;17.06;56.24
13553;BME280;6847;48.830;9.116;2023-05-11T06:46:36;97736.16;;;17.10;55.98
13553;BME280;6847;48.830;9.116;2023-05-11T06:49:05;97726.81;;;17.11;56.14
13553;BME280;6847;48.830;9.116;2023-05-11T06:51:33;97726.97;;;17.15;56.32
13553;BME280;6847;48.830;9.116;2023-05-11T06:54:02;97731.00;;;17.17;56.14
13553;BME280;6847;48.830;9.116;2023-05-11T06:56:29;97730.34;;;17.20;55.84
13553;BME280;6847;48.830;9.116;2023-05-11T06:58:58;97726.63;;;17.25;56.28
13553;BME280;6847;48.830;9.116;2023-05-11T07:01:25;97728.41;;;17.29;56.32
13553;BME280;6847;48.830;9.116;2023-05-11T07:03:53;97716.03;;;17.23;56.13
13553;BME280;6847;48.830;9.116;2023-05-11T07:06:21;97728.88;;;17.31;56.23
13553;BME280;6847;48.830;9.116;2023-05-11T07:08:49;97684.19;;;17.01;55.85
13553;BME280;6847;48.830;9.116;2023-05-11T07:11:16;97680.47;;;17.06;56.25
13553;BME280;6847;48.830;9.116;2023-05-11T07:13:46;97737.56;;;17.42;56.33
13553;BME280;6847;48.830;9.116;2023-05-11T07:16:17;97739.31;;;17.47;55.99
13553;BME280;6847;48.830;9.116;2023-05-11T07:18:44;97737.06;;;17.49;56.12
13553;BME280;6847;48.830;9.116;2023-05-11T07:21:18;97738.66;;;17.50;56.25
13553;BME280;6847;48.830;9.116;2023-05-11T07:23:46;97745.88;;;17.54;56.25
13553;BME280;6847;48.830;9.116;2023-05-11T07:26:13;97745.72;;;17.59;55.73
13553;BME280;6847;48.830;9.116;2023-05-11T07:28:39;97738.31;;;17.60;55.74
13553;BME280;6847;48.830;9.116;2023-05-11T07:31:06;97735.59;;;17.68;56.21
13553;BME280;6847;48.830;9.116;2023-05-11T07:33:36;97738.81;;;17.70;55.80
13553;BME280;6847;48.830;9.116;2023-05-11T07:36:04;97749.41;;;17.81;56.21
13553;BME280;6847;48.830;9.116;2023-05-11T07:38:30;97636.38;;;17.16;56.17
13553;BME280;6847;48.830;9.116;2023-05-11T07:40:58;97746.75;;;17.93;55.89
13553;BME280;6847;48.830;9.116;2023-05-11T07:43:28;97747.72;;;17.97;55.68
13553;BME280;6847;48.830;9.116;2023-05-11T07:45:57;97740.63;;;17.96;55.86
13553;BME280;6847;48.830;9.116;2023-05-11T07:48:24;97704.09;;;17.83;56.10
13553;BME280;6847;48.830;9.116;2023-05-11T07:50:52;97742.31;;;18.18;55.68
13553;BME280;6847;48.830;9.116;2023-05-11T07:53:24;97749.19;;;18.24;55.66
13553;BME280;6847;48.830;9.116;2023-05-11T07:55:51;97727.31;;;18.15;55.89
13553;BME280;6847;48.830;9.116;2023-05-11T07:58:18;97750.91;;;18.37;55.83
13553;BME280;6847;48.830;9.116;2023-05-11T08:00:46;97695.84;;;18.00;55.92
13553;BME280;6847;48.830;9.116;2023-05-11T08:03:12;97751.38;;;18.39;55.83
13553;BME280;6847;48.830;9.116;2023-05-11T08:05:40;97698.84;;;18.07;55.61
13553;BME280;6847;48.830;9.116;2023-05-11T08:08:08;97739.41;;;18.43;55.65
13553;BME280;6847;48.830;9.116;2023-05-11T08:10:35;97645.19;;;17.77;55.92
13553;BME280;6847;48.830;9.116;2023-05-11T08:13:01;97740.38;;;18.47;55.98
13553;BME280;6847;48.830;9.116;2023-05-11T08:15:28;97748.06;;;18.54;55.79
13553;BME280;6847;48.830;9.116;2023-05-11T08:17:55;97748.03;;;18.63;55.86
13553;BME280;6847;48.830;9.116;2023-05-11T08:20:25;97753.00;;;18.69;55.55
13553;BME280;6847;48.830;9.116;2023-05-11T08:22:51;97750.84;;;18.75;55.55
13553;BME280;6847;48.830;9.116;2023-05-11T08:25:19;97749.50;;;18.81;55.47
13553;BME280;6847;48.830;9.116;2023-05-11T08:27:46;97678.94;;;18.48;55.86
13553;BME280;6847;48.830;9.116;2023-05-11T08:30:14;97749.25;;;18.95;55.69
13553;BME280;6847;48.830;9.116;2023-05-11T08:32:45;97723.84;;;18.85;55.48
13553;BME280;6847;48.830;9.116;2023-05-11T08:35:12;97749.50;;;19.02;55.65
13553;BME280;6847;48.830;9.116;2023-05-11T08:37:43;97752.53;;;19.09;55.36
13553;BME280;6847;48.830;9.116;2023-05-11T08:40:12;97751.19;;;19.15;55.36
13553;BME280;6847;48.830;9.116;2023-05-11T08:42:45;97694.47;;;18.86;55.26
13553;BME280;6847;48.830;9.116;2023-05-11T08:45:14;97736.81;;;19.18;55.43
13553;BME280;6847;48.830;9.116;2023-05-11T08:47:44;97749.38;;;19.19;55.30
13553;BME280;6847;48.830;9.116;2023-05-11T08:50:13;97729.06;;;18.99;55.27
13553;BME280;6847;48.830;9.116;2023-05-11T08:52:40;97659.69;;;18.57;55.70
13553;BME280;6847;48.830;9.116;2023-05-11T08:55:08;97726.44;;;19.03;55.56
13553;BME280;6847;48.830;9.116;2023-05-11T08:57:38;97753.28;;;19.18;55.69
13553;BME280;6847;48.830;9.116;2023-05-11T09:00:23;97752.56;;;19.21;55.44
13553;BME280;6847;48.830;9.116;2023-05-11T09:02:50;97755.00;;;19.22;55.30
13553;BME280;6847;48.830;9.116;2023-05-11T09:05:19;97749.38;;;19.19;55.14
13553;BME280;6847;48.830;9.116;2023-05-11T09:07:51;97746.97;;;19.17;55.13
13553;BME280;6847;48.830;9.116;2023-05-11T09:10:18;97727.13;;;19.00;55.16
13553;BME280;6847;48.830;9.116;2023-05-11T09:12:46;97753.72;;;19.20;55.17
13553;BME280;6847;48.830;9.116;2023-05-11T09:15:12;97756.25;;;19.25;55.13
13553;BME280;6847;48.830;9.116;2023-05-11T09:17:41;97704.00;;;19.01;55.07
13553;BME280;6847;48.830;9.116;2023-05-11T09:20:09;97756.97;;;19.34;55.17
13553;BME280;6847;48.830;9.116;2023-05-11T09:22:40;97749.88;;;19.33;55.34
13553;BME280;6847;48.830;9.116;2023-05-11T09:25:10;97752.16;;;19.31;55.43
13553;BME280;6847;48.830;9.116;2023-05-11T09:27:42;97732.44;;;19.17;55.53
13553;BME280;6847;48.830;9.116;2023-05-11T09:30:15;97753.38;;;19.21;55.18
13553;BME280;6847;48.830;9.116;2023-05-11T09:32:51;97761.41;;;19.27;55.41
13553;BME280;6847;48.830;9.116;2023-05-11T09:35:19;97749.75;;;19.30;55.24
13553;BME280;6847;48.830;9.116;2023-05-11T09:37:56;97743.13;;;19.31;55.42
13553;BME280;6847;48.830;9.116;2023-05-11T09:40:23;97754.47;;;19.41;55.26
13553;BME280;6847;48.830;9.116;2023-05-11T09:42:50;97751.06;;;19.44;55.28
13553;BME280;6847;48.830;9.116;2023-05-11T09:45:35;97718.97;;;19.24;55.11
13553;BME280;6847;48.830;9.116;2023-05-11T09:48:05;97750.88;;;19.49;55.32
13553;BME280;6847;48.830;9.116;2023-05-11T09:50:34;97692.88;;;19.18;54.84
13553;BME280;6847;48.830;9.116;2023-05-11T09:53:01;97757.34;;;19.66;55.29
13553;BME280;6847;48.830;9.116;2023-05-11T09:55:28;97753.91;;;19.69;55.11
13553;BME280;6847;48.830;9.116;2023-05-11T09:57:58;97755.41;;;19.66;55.21
13553;BME280;6847;48.830;9.116;2023-05-11T10:00:25;97757.44;;;19.69;55.00
13553;BME280;6847;48.830;9.116;2023-05-11T10:02:58;97760.66;;;19.71;54.79
13553;BME280;6847;48.830;9.116;2023-05-11T10:05:27;97756.44;;;19.74;55.20
13553;BME280;6847;48.830;9.116;2023-05-11T10:08:02;97751.28;;;19.72;54.81
13553;BME280;6847;48.830;9.116;2023-05-11T10:10:33;97712.63;;;19.44;55.00
13553;BME280;6847;48.830;9.116;2023-05-11T10:13:01;97750.47;;;19.72;54.76
13553;BME280;6847;48.830;9.116;2023-05-11T10:15:28;97704.00;;;19.54;54.83
13553;BME280;6847;48.830;9.116;2023-05-11T10:18:00;97750.41;;;19.92;54.70
13553;BME280;6847;48.830;9.116;2023-05-11T10:20:29;97632.63;;;19.21;54.72
13553;BME280;6847;48.830;9.116;2023-05-11T10:23:01;97745.84;;;19.97;54.69
13553;BME280;6847;48.830;9.116;2023-05-11T10:25:29;97750.78;;;20.03;54.78
13553;BME280;6847;48.830;9.116;2023-05-11T10:27:56;97693.94;;;19.71;54.85
13553;BME280;6847;48.830;9.116;2023-05-11T10:30:28;97731.31;;;19.96;54.86
13553;BME280;6847;48.830;9.116;2023-05-11T10:32:55;97745.63;;;20.14;54.65
13553;BME280;6847;48.830;9.116;2023-05-11T10:35:26;97744.94;;;20.17;54.78
13553;BME280;6847;48.830;9.116;2023-05-11T10:37:55;97749.97;;;20.15;54.63
13553;BME280;6847;48.830;9.116;2023-05-11T10:40:27;97752.72;;;20.15;54.56
13553;BME280;6847;48.830;9.116;2023-05-11T10:43:17;97678.50;;;19.66;54.79
13553;BME280;6847;48.830;9.116;2023-05-11T10:45:50;97744.59;;;20.06;54.67
13553;BME280;6847;48.830;9.116;2023-05-11T10:48:47;97746.88;;;20.04;54.60
13553;BME280;6847;48.830;9.116;2023-05-11T10:51:32;97723.06;;;19.96;54.73
13553;BME280;6847;48.830;9.116;2023-05-11T10:54:14;97737.50;;;20.05;54.59
13553;BME280;6847;48.830;9.116;2023-05-11T10:56:55;97738.41;;;20.09;54.66
13553;BME280;6847;48.830;9.116;2023-05-11T10:59:40;97738.53;;;20.13;54.47
13553;BME280;6847;48.830;9.116;2023-05-11T11:02:11;97743.44;;;20.19;54.47
13553;BME280;6847;48.830;9.116;2023-05-11T11:04:42;97718.72;;;20.07;54.57
13553;BME280;6847;48.830;9.116;2023-05-11T11:07:09;97736.81;;;20.32;54.44
13553;BME280;6847;48.830;9.116;2023-05-11T11:09:55;97732.34;;;20.40;54.39
13553;BME280;6847;48.830;9.116;2023-05-11T11:12:23;97686.41;;;20.16;54.38
13553;BME280;6847;48.830;9.116;2023-05-11T11:14:56;97737.72;;;20.49;54.25
13553;BME280;6847;48.830;9.116;2023-05-11T11:17:26;97725.59;;;20.50;54.05
13553;BME280;6847;48.830;9.116;2023-05-11T11:19:55;97731.06;;;20.62;54.02
13553;BME280;6847;48.830;9.116;2023-05-11T11:22:43;97694.06;;;20.47;53.82
13553;BME280;6847;48.830;9.116;2023-05-11T11:25:13;97738.16;;;20.75;53.74
13553;BME280;6847;48.830;9.116;2023-05-11T11:27:57;97729.84;;;20.87;53.70
13553;BME280;6847;48.830;9.116;2023-05-11T11:30:25;97720.00;;;20.86;53.59
13553;BME280;6847;48.830;9.116;2023-05-11T11:33:30;97726.13;;;21.08;53.56
13553;BME280;6847;48.830;9.116;2023-05-11T11:35:58;97729.22;;;21.18;53.42
13553;BME280;6847;48.830;9.116;2023-05-11T11:38:26;97710.41;;;21.20;53.26
13553;BME280;6847;48.830;9.116;2023-05-11T11:40:55;97659.59;;;21.05;53.21
13553;BME280;6847;48.830;9.116;2023-05-11T11:43:23;97720.69;;;21.51;52.92
13553;BME280;6847;48.830;9.116;2023-05-11T11:45:51;97645.59;;;21.11;53.07
13553;BME280;6847;48.830;9.116;2023-05-11T11:48:21;97719.44;;;21.64;53.02
13553;BME280;6847;48.830;9.116;2023-05-11T11:51:02;97724.03;;;21.72;52.71
13553;BME280;6847;48.830;9.116;2023-05-11T11:53:57;97726.25;;;21.83;52.86
13553;BME280;6847;48.830;9.116;2023-05-11T11:56:43;97708.13;;;21.82;52.53
13553;BME280;6847;48.830;9.116;2023-05-11T11:59:10;97731.88;;;22.02;52.46
13553;BME280;6847;48.830;9.116;2023-05-11T12:01:44;97726.25;;;22.14;52.35
13553;BME280;6847;48.830;9.116;2023-05-11T12:04:50;97720.50;;;22.19;52.16
13553;BME280;6847;48.830;9.116;2023-05-11T12:07:23;97726.06;;;22.38;51.80
13553;BME280;6847;48.830;9.116;2023-05-11T12:09:50;97725.22;;;22.53;51.76
13553;BME280;6847;48.830;9.116;2023-05-11T12:12:19;97725.13;;;22.66;51.44
13553;BME280;6847;48.830;9.116;2023-05-11T12:14:46;97722.72;;;22.80;51.33
13553;BME280;6847;48.830;9.116;2023-05-11T12:17:23;97718.63;;;22.93;51.28
13553;BME280;6847;48.830;9.116;2023-05-11T12:19:52;97718.38;;;22.98;50.94
13553;BME280;6847;48.830;9.116;2023-05-11T12:22:22;97717.94;;;22.96;51.37
13553;BME280;6847;48.830;9.116;2023-05-11T12:24:49;97715.03;;;22.89;51.38
13553;BME280;6847;48.830;9.116;2023-05-11T12:27:16;97718.94;;;22.88;51.26
13553;BME280;6847;48.830;9.116;2023-05-11T12:29:51;97713.06;;;22.90;51.56
13553;BME280;6847;48.830;9.116;2023-05-11T12:32:28;97720.25;;;22.94;51.36
13553;BME280;6847;48.830;9.116;2023-05-11T12:35:00;97717.13;;;22.96;51.33
13553;BME280;6847;48.830;9.116;2023-05-11T12:37:33;97713.28;;;23.00;51.29
13553;BME280;6847;48.830;9.116;2023-05-11T12:40:09;97693.88;;;22.97;50.93
13553;BME280;6847;48.830;9.116;2023-05-11T12:42:36;97712.53;;;23.03;51.14
13553;BME280;6847;48.830;9.116;2023-05-11T12:45:07;97703.84;;;23.01;51.14
13553;BME280;6847;48.830;9.116;2023-05-11T12:47:45;97672.28;;;22.83;50.81
13553;BME280;6847;48.830;9.116;2023-05-11T12:50:12;97701.72;;;22.95;50.96
13553;BME280;6847;48.830;9.116;2023-05-11T12:52:40;97705.28;;;22.95;50.69
13553;BME280;6847;48.830;9.116;2023-05-11T12:55:10;97694.38;;;23.02;50.67
13553;BME280;6847;48.830;9.116;2023-05-11T12:57:39;97634.66;;;22.75;50.43
13553;BME280;6847;48.830;9.116;2023-05-11T13:00:13;97689.59;;;23.18;50.32
13553;BME280;6847;48.830;9.116;2023-05-11T13:02:48;97688.44;;;23.19;50.02
13553;BME280;6847;48.830;9.116;2023-05-11T13:05:18;97673.31;;;23.13;50.44
13553;BME280;6847;48.830;9.116;2023-05-11T13:07:44;97673.16;;;23.06;50.02
13553;BME280;6847;48.830;9.116;2023-05-11T13:10:12;97658.94;;;22.85;50.11
13553;BME280;6847;48.830;9.116;2023-05-11T13:12:49;97682.34;;;22.91;50.07
13553;BME280;6847;48.830;9.116;2023-05-11T13:15:21;97639.88;;;22.61;50.14
13553;BME280;6847;48.830;9.116;2023-05-11T13:17:55;97668.09;;;22.73;50.09
13553;BME280;6847;48.830;9.116;2023-05-11T13:20:24;97662.09;;;22.68;50.03
13553;BME280;6847;48.830;9.116;2023-05-11T13:23:03;97675.59;;;22.73;49.82
13553;BME280;6847;48.830;9.116;2023-05-11T13:25:32;97665.34;;;22.73;49.57